sensor_id;sensor_type;location;lat;lon;timestamp;pressure;altitude;pressure_sealevel;temperature;humidity
24962;BME280;12992;50.884;13.668;2023-02-22T00:01:13;97327.69;;;8.29;100.00
24962;BME280;12992;50.884;13.668;2023-02-22T00:03:57;97333.84;;;8.36;100.00
24962;BME280;12992;50.884;13.668;2023-02-22T00:06:22;97316.66;;;8.18;100.00
24962;BME280;12992;50.884;13.668;2023-02-22T00:08:49;97322.78;;;8.26;100.00
24962;BME280;12992;50.884;13.668;2023-02-22T00:11:17;97329.34;;;8.30;100.00
24962;BME280;12992;50.884;13.668;2023-02-22T00:13:42;97323.91;;;8.30;100.00
24962;BME280;12992;50.884;13.668;2023-02-22T00:16:12;97323.47;;;8.33;100.00
24962;BME280;12992;50.884;13.668;2023-02-22T00:18:38;97316.84;;;8.29;100.00
24962;BME280;12992;50.884;13.668;2023-02-22T00:21:04;97313.56;;;8.27;100.00
24962;BME280;12992;50.884;13.668;2023-02-22T00:23:35;97297.91;;;8.17;100.00
24962;BME280;12992;50.884;13.668;2023-02-22T00:26:04;97320.38;;;8.29;100.00
24962;BME280;12992;50.884;13.668;2023-02-22T00:28:30;97315.56;;;8.31;100.00
24962;BME280;12992;50.884;13.668;2023-02-22T00:30:55;97315.56;;;8.31;100.00
24962;BME280;12992;50.884;13.668;2023-02-22T00:33:22;97327.13;;;8.38;100.00
24962;BME280;12992;50.884;13.668;2023-02-22T00:35:47;97325.22;;;8.39;100.00
24962;BME280;12992;50.884;13.668;2023-02-22T00:38:15;97306.38;;;8.32;100.00
24962;BME280;12992;50.884;13.668;2023-02-22T00:40:41;97293.88;;;8.19;100.00
24962;BME280;12992;50.884;13.668;2023-02-22T00:43:07;97303.59;;;8.15;100.00
24962;BME280;12992;50.884;13.668;2023-02-22T00:45:34;97299.34;;;8.08;100.00
24962;BME280;12992;50.884;13.668;2023-02-22T00:48:01;97306.28;;;8.15;100.00
24962;BME280;12992;50.884;13.668;2023-02-22T00:50:28;97302.31;;;8.06;100.00
24962;BME280;12992;50.884;13.668;2023-02-22T00:52:55;97306.31;;;8.04;100.00
24962;BME280;12992;50.884;13.668;2023-02-22T00:55:24;97301.75;;;8.04;100.00
24962;BME280;12992;50.884;13.668;2023-02-22T00:57:50;97314.81;;;8.07;100.00
24962;BME280;12992;50.884;13.668;2023-02-22T01:00:19;97325.97;;;8.22;100.00
24962;BME280;12992;50.884;13.668;2023-02-22T01:02:45;97311.47;;;8.17;100.00
24962;BME280;12992;50.884;13.668;2023-02-22T01:05:14;97316.06;;;8.16;100.00
24962;BME280;12992;50.884;13.668;2023-02-22T01:07:40;97317.59;;;8.12;100.00
24962;BME280;12992;50.884;13.668;2023-02-22T01:10:07;97304.53;;;8.09;100.00
24962;BME280;12992;50.884;13.668;2023-02-22T01:12:33;97308.56;;;8.07;100.00
24962;BME280;12992;50.884;13.668;2023-02-22T01:14:58;97312.66;;;8.09;100.00
24962;BME280;12992;50.884;13.668;2023-02-22T01:17:24;97308.56;;;8.07;100.00
24962;BME280;12992;50.884;13.668;2023-02-22T01:19:51;97309.88;;;8.04;100.00
24962;BME280;12992;50.884;13.668;2023-02-22T01:22:17;97310.34;;;8.01;100.00
24962;BME280;12992;50.884;13.668;2023-02-22T01:24:43;97310.09;;;8.03;100.00
24962;BME280;12992;50.884;13.668;2023-02-22T01:27:08;97305.47;;;8.03;100.00
24962;BME280;12992;50.884;13.668;2023-02-22T01:29:36;97309.03;;;8.04;100.00
24962;BME280;12992;50.884;13.668;2023-02-22T01:32:01;97318.22;;;8.03;100.00
24962;BME280;12992;50.884;13.668;2023-02-22T01:34:26;97311.97;;;8.02;100.00
24962;BME280;12992;50.884;13.668;2023-02-22T01:36:52;97307.03;;;7.99;100.00
24962;BME280;12992;50.884;13.668;2023-02-22T01:39:17;97297.72;;;7.95;100.00
24962;BME280;12992;50.884;13.668;2023-02-22T01:41:44;97297.13;;;7.93;100.00
24962;BME280;12992;50.884;13.668;2023-02-22T01:44:37;97307.03;;;7.99;100.00
24962;BME280;12992;50.884;13.668;2023-02-22T01:47:04;97316.13;;;8.05;100.00
24962;BME280;12992;50.884;13.668;2023-02-22T01:49:35;97304.91;;;8.01;100.00
24962;BME280;12992;50.884;13.668;2023-02-22T01:52:06;97307.03;;;7.99;100.00
24962;BME280;12992;50.884;13.668;2023-02-22T01:54:39;97308.69;;;8.00;100.00
24962;BME280;12992;50.884;13.668;2023-02-22T01:57:07;97299.41;;;7.96;100.00
24962;BME280;12992;50.884;13.668;2023-02-22T01:59:39;97311.06;;;7.97;100.00
24962;BME280;12992;50.884;13.668;2023-02-22T02:02:05;97308.94;;;7.99;100.00
24962;BME280;12992;50.884;13.668;2023-02-22T02:04:32;97311.41;;;8.00;100.00
24962;BME280;12992;50.884;13.668;2023-02-22T02:07:00;97304.31;;;7.99;100.00
24962;BME280;12992;50.884;13.668;2023-02-22T02:09:29;97294.56;;;7.98;100.00
24962;BME280;12992;50.884;13.668;2023-02-22T02:11:58;97300.66;;;8.05;100.00
24962;BME280;12992;50.884;13.668;2023-02-22T02:14:25;97280.06;;;7.92;100.00
24962;BME280;12992;50.884;13.668;2023-02-22T02:16:51;97297.72;;;7.95;100.00
24962;BME280;12992;50.884;13.668;2023-02-22T02:22:37;97293.16;;;7.95;100.00
24962;BME280;12992;50.884;13.668;2023-02-22T02:30:59;97278.53;;;7.85;100.00
24962;BME280;12992;50.884;13.668;2023-02-22T02:33:33;97271.47;;;7.84;100.00
24962;BME280;12992;50.884;13.668;2023-02-22T02:36:19;97266.78;;;7.79;100.00
24962;BME280;12992;50.884;13.668;2023-02-22T02:38:56;97263.69;;;7.76;100.00
24962;BME280;12992;50.884;13.668;2023-02-22T02:41:32;97268.66;;;7.79;100.00
24962;BME280;12992;50.884;13.668;2023-02-22T02:44:14;97266.66;;;7.74;100.00
24962;BME280;12992;50.884;13.668;2023-02-22T02:47:16;97256.09;;;7.61;100.00
24962;BME280;12992;50.884;13.668;2023-02-22T02:49:50;97247.84;;;7.56;100.00
24962;BME280;12992;50.884;13.668;2023-02-22T02:52:20;97251.03;;;7.53;100.00
24962;BME280;12992;50.884;13.668;2023-02-22T02:54:47;97251.28;;;7.51;100.00
24962;BME280;12992;50.884;13.668;2023-02-22T02:57:13;97247.38;;;7.47;100.00
24962;BME280;12992;50.884;13.668;2023-02-22T02:59:38;97239.28;;;7.35;100.00
24962;BME280;12992;50.884;13.668;2023-02-22T03:02:29;97229.03;;;7.26;100.00
24962;BME280;12992;50.884;13.668;2023-02-22T03:05:28;97220.09;;;7.14;100.00
24962;BME280;12992;50.884;13.668;2023-02-22T03:08:06;97227.50;;;7.06;100.00
24962;BME280;12992;50.884;13.668;2023-02-22T03:16:16;97210.53;;;6.76;100.00
24962;BME280;12992;50.884;13.668;2023-02-22T03:18:50;97202.06;;;6.61;100.00
24962;BME280;12992;50.884;13.668;2023-02-22T03:21:30;97199.34;;;6.49;100.00
24962;BME280;12992;50.884;13.668;2023-02-22T03:24:00;97209.09;;;6.50;100.00
24962;BME280;12992;50.884;13.668;2023-02-22T03:26:34;97207.22;;;6.50;100.00
24962;BME280;12992;50.884;13.668;2023-02-22T03:29:04;97199.31;;;6.37;100.00
24962;BME280;12992;50.884;13.668;2023-02-22T03:31:38;97168.84;;;6.18;100.00
24962;BME280;12992;50.884;13.668;2023-02-22T03:34:12;97160.66;;;5.95;100.00
24962;BME280;12992;50.884;13.668;2023-02-22T03:36:55;97152.09;;;5.80;100.00
24962;BME280;12992;50.884;13.668;2023-02-22T03:39:23;97126.72;;;5.51;100.00
24962;BME280;12992;50.884;13.668;2023-02-22T03:42:12;97135.16;;;5.24;100.00
24962;BME280;12992;50.884;13.668;2023-02-22T03:44:41;97126.63;;;5.09;100.00
24962;BME280;12992;50.884;13.668;2023-02-22T03:47:12;97137.59;;;4.96;100.00
24962;BME280;12992;50.884;13.668;2023-02-22T03:49:53;97127.59;;;4.78;100.00
24962;BME280;12992;50.884;13.668;2023-02-22T03:52:20;97148.50;;;4.82;100.00
24962;BME280;12992;50.884;13.668;2023-02-22T03:54:49;97144.69;;;4.72;100.00
24962;BME280;12992;50.884;13.668;2023-02-22T03:57:28;97168.44;;;4.81;100.00
24962;BME280;12992;50.884;13.668;2023-02-22T04:00:04;97177.00;;;4.78;100.00
24962;BME280;12992;50.884;13.668;2023-02-22T04:02:38;97193.09;;;4.85;100.00
24962;BME280;12992;50.884;13.668;2023-02-22T04:05:05;97204.94;;;4.84;100.00
24962;BME280;12992;50.884;13.668;2023-02-22T04:07:31;97209.22;;;4.92;100.00
24962;BME280;12992;50.884;13.668;2023-02-22T04:09:56;97220.94;;;5.04;100.00
24962;BME280;12992;50.884;13.668;2023-02-22T04:12:22;97219.22;;;5.09;100.00
24962;BME280;12992;50.884;13.668;2023-02-22T04:14:53;97221.56;;;5.06;100.00
24962;BME280;12992;50.884;13.668;2023-02-22T04:17:19;97217.03;;;5.00;100.00
24962;BME280;12992;50.884;13.668;2023-02-22T04:19:44;97226.03;;;5.12;100.00
24962;BME280;12992;50.884;13.668;2023-02-22T04:22:11;97247.50;;;5.25;100.00
24962;BME280;12992;50.884;13.668;2023-02-22T04:24:37;97246.00;;;5.29;100.00
24962;BME280;12992;50.884;13.668;2023-02-22T04:27:02;97230.94;;;5.22;100.00
24962;BME280;12992;50.884;13.668;2023-02-22T04:29:28;97233.84;;;5.20;100.00
24962;BME280;12992;50.884;13.668;2023-02-22T04:31:54;97237.00;;;5.17;100.00
24962;BME280;12992;50.884;13.668;2023-02-22T04:34:19;97231.59;;;5.17;100.00
24962;BME280;12992;50.884;13.668;2023-02-22T04:36:46;97246.31;;;5.21;100.00
24962;BME280;12992;50.884;13.668;2023-02-22T04:39:13;97255.78;;;5.30;100.00
24962;BME280;12992;50.884;13.668;2023-02-22T04:41:39;97248.69;;;5.29;100.00
24962;BME280;12992;50.884;13.668;2023-02-22T04:44:06;97247.06;;;5.28;100.00
24962;BME280;12992;50.884;13.668;2023-02-22T04:46:32;97249.03;;;5.39;100.00
24962;BME280;12992;50.884;13.668;2023-02-22T04:48:58;97253.59;;;5.39;100.00
24962;BME280;12992;50.884;13.668;2023-02-22T04:51:26;97251.28;;;5.43;100.00
24962;BME280;12992;50.884;13.668;2023-02-22T04:53:58;97278.56;;;5.71;100.00
24962;BME280;12992;50.884;13.668;2023-02-22T04:56:23;97284.66;;;5.85;100.00
24962;BME280;12992;50.884;13.668;2023-02-22T04:58:49;97274.09;;;5.83;100.00
24962;BME280;12992;50.884;13.668;2023-02-22T05:01:15;97259.34;;;5.79;100.00
24962;BME280;12992;50.884;13.668;2023-02-22T05:03:42;97257.25;;;5.81;100.00
24962;BME280;12992;50.884;13.668;2023-02-22T05:06:07;97266.72;;;5.90;100.00
24962;BME280;12992;50.884;13.668;2023-02-22T05:08:33;97240.22;;;5.81;100.00
24962;BME280;12992;50.884;13.668;2023-02-22T05:10:58;97262.22;;;5.84;100.00
24962;BME280;12992;50.884;13.668;2023-02-22T05:13:24;97242.91;;;5.81;100.00
24962;BME280;12992;50.884;13.668;2023-02-22T05:15:50;97247.97;;;5.77;100.00
24962;BME280;12992;50.884;13.668;2023-02-22T05:18:15;97248.72;;;5.84;100.00
24962;BME280;12992;50.884;13.668;2023-02-22T05:20:40;97254.13;;;5.84;100.00
24962;BME280;12992;50.884;13.668;2023-02-22T05:23:06;97258.91;;;5.82;100.00
24962;BME280;12992;50.884;13.668;2023-02-22T05:25:32;97253.94;;;5.79;100.00
24962;BME280;12992;50.884;13.668;2023-02-22T05:28:00;97259.72;;;5.83;100.00
24962;BME280;12992;50.884;13.668;2023-02-22T05:30:30;97256.06;;;5.77;100.00
24962;BME280;12992;50.884;13.668;2023-02-22T05:32:56;97267.16;;;5.87;100.00
24962;BME280;12992;50.884;13.668;2023-02-22T05:35:22;97266.72;;;5.90;100.00
24962;BME280;12992;50.884;13.668;2023-02-22T05:37:47;97256.34;;;5.87;100.00
24962;BME280;12992;50.884;13.668;2023-02-22T05:40:16;97267.94;;;5.94;100.00
24962;BME280;12992;50.884;13.668;2023-02-22T05:42:42;97270.34;;;6.03;100.00
24962;BME280;12992;50.884;13.668;2023-02-22T05:45:08;97248.00;;;5.89;100.00
24962;BME280;12992;50.884;13.668;2023-02-22T05:47:33;97277.38;;;6.04;100.00
24962;BME280;12992;50.884;13.668;2023-02-22T05:49:58;97273.16;;;6.08;100.00
24962;BME280;12992;50.884;13.668;2023-02-22T05:52:24;97277.44;;;6.15;100.00
24962;BME280;12992;50.884;13.668;2023-02-22T05:54:49;97248.78;;;5.96;100.00
24962;BME280;12992;50.884;13.668;2023-02-22T05:57:15;97252.00;;;5.86;100.00
24962;BME280;12992;50.884;13.668;2023-02-22T05:59:40;97259.59;;;5.96;100.00
24962;BME280;12992;50.884;13.668;2023-02-22T06:02:07;97268.53;;;5.96;100.00
24962;BME280;12992;50.884;13.668;2023-02-22T06:04:32;97292.81;;;6.15;100.00
24962;BME280;12992;50.884;13.668;2023-02-22T06:06:58;97298.19;;;6.33;100.00
24962;BME280;12992;50.884;13.668;2023-02-22T06:09:23;97264.59;;;6.11;100.00
24962;BME280;12992;50.884;13.668;2023-02-22T06:11:48;97258.47;;;6.04;100.00
24962;BME280;12992;50.884;13.668;2023-02-22T06:14:14;97294.16;;;6.24;100.00
24962;BME280;12992;50.884;13.668;2023-02-22T06:16:39;97285.56;;;6.27;100.00
24962;BME280;12992;50.884;13.668;2023-02-22T06:19:04;97291.72;;;6.34;100.00
24962;BME280;12992;50.884;13.668;2023-02-22T06:21:30;97273.13;;;6.26;100.00
24962;BME280;12992;50.884;13.668;2023-02-22T06:23:55;97277.25;;;6.29;100.00
24962;BME280;12992;50.884;13.668;2023-02-22T06:26:20;97263.91;;;6.15;100.00
24962;BME280;12992;50.884;13.668;2023-02-22T06:28:47;97286.56;;;6.33;100.00
24962;BME280;12992;50.884;13.668;2023-02-22T06:31:12;97283.50;;;6.29;100.00
24962;BME280;12992;50.884;13.668;2023-02-22T06:33:37;97290.34;;;6.43;100.00
24962;BME280;12992;50.884;13.668;2023-02-22T06:36:03;97295.56;;;6.45;100.00
24962;BME280;12992;50.884;13.668;2023-02-22T06:38:29;97307.00;;;6.59;100.00
24962;BME280;12992;50.884;13.668;2023-02-22T06:40:55;97279.53;;;6.43;100.00
24962;BME280;12992;50.884;13.668;2023-02-22T06:43:21;97293.53;;;6.40;100.00
24962;BME280;12992;50.884;13.668;2023-02-22T06:45:48;97299.66;;;6.47;100.00
24962;BME280;12992;50.884;13.668;2023-02-22T06:48:13;97305.00;;;6.54;100.00
24962;BME280;12992;50.884;13.668;2023-02-22T06:50:39;97307.91;;;6.52;100.00
24962;BME280;12992;50.884;13.668;2023-02-22T06:53:04;97313.47;;;6.58;100.00
24962;BME280;12992;50.884;13.668;2023-02-22T06:55:31;97322.06;;;6.66;100.00
24962;BME280;12992;50.884;13.668;2023-02-22T06:57:57;97331.66;;;6.80;100.00
24962;BME280;12992;50.884;13.668;2023-02-22T07:00:23;97339.66;;;6.87;100.00
24962;BME280;12992;50.884;13.668;2023-02-22T07:02:50;97351.69;;;7.03;100.00
24962;BME280;12992;50.884;13.668;2023-02-22T07:05:17;97338.75;;;7.05;100.00
24962;BME280;12992;50.884;13.668;2023-02-22T07:07:44;97316.38;;;6.98;100.00
24962;BME280;12992;50.884;13.668;2023-02-22T07:10:20;97334.06;;;7.12;100.00
24962;BME280;12992;50.884;13.668;2023-02-22T07:12:46;97334.66;;;7.14;100.00
24962;BME280;12992;50.884;13.668;2023-02-22T07:15:13;97334.19;;;7.17;100.00
24962;BME280;12992;50.884;13.668;2023-02-22T07:17:39;97343.50;;;7.21;100.00
24962;BME280;12992;50.884;13.668;2023-02-22T07:20:06;97321.09;;;7.14;100.00
24962;BME280;12992;50.884;13.668;2023-02-22T07:22:31;97321.34;;;7.13;100.00
24962;BME280;12992;50.884;13.668;2023-02-22T07:24:57;97325.13;;;7.12;100.00
24962;BME280;12992;50.884;13.668;2023-02-22T07:27:22;97338.31;;;7.20;100.00
24962;BME280;12992;50.884;13.668;2023-02-22T07:29:47;97342.19;;;7.24;100.00
24962;BME280;12992;50.884;13.668;2023-02-22T07:32:14;97325.00;;;7.18;100.00
24962;BME280;12992;50.884;13.668;2023-02-22T07:34:40;97345.03;;;7.29;100.00
24962;BME280;12992;50.884;13.668;2023-02-22T07:37:06;97342.91;;;7.31;100.00
24962;BME280;12992;50.884;13.668;2023-02-22T07:39:31;97331.59;;;7.22;100.00
24962;BME280;12992;50.884;13.668;2023-02-22T07:41:57;97354.47;;;7.38;100.00
24962;BME280;12992;50.884;13.668;2023-02-22T07:44:23;97332.31;;;7.29;100.00
24962;BME280;12992;50.884;13.668;2023-02-22T07:46:48;97335.03;;;7.29;100.00
24962;BME280;12992;50.884;13.668;2023-02-22T07:49:14;97360.34;;;7.47;100.00
24962;BME280;12992;50.884;13.668;2023-02-22T07:51:40;97363.78;;;7.54;100.00
24962;BME280;12992;50.884;13.668;2023-02-22T07:54:05;97380.16;;;7.71;100.00
24962;BME280;12992;50.884;13.668;2023-02-22T07:56:30;97379.47;;;7.87;100.00
24962;BME280;12992;50.884;13.668;2023-02-22T07:58:55;97368.97;;;7.79;100.00
24962;BME280;12992;50.884;13.668;2023-02-22T08:01:21;97375.91;;;7.98;100.00
24962;BME280;12992;50.884;13.668;2023-02-22T08:03:48;97372.25;;;8.04;100.00
24962;BME280;12992;50.884;13.668;2023-02-22T08:06:13;97367.16;;;8.08;100.00
24962;BME280;12992;50.884;13.668;2023-02-22T08:08:39;97376.78;;;8.27;100.00
24962;BME280;12992;50.884;13.668;2023-02-22T08:11:04;97367.13;;;8.31;100.00
24962;BME280;12992;50.884;13.668;2023-02-22T08:13:30;97363.59;;;8.31;100.00
24962;BME280;12992;50.884;13.668;2023-02-22T08:15:55;97354.50;;;8.25;100.00
24962;BME280;12992;50.884;13.668;2023-02-22T08:18:22;97360.03;;;8.42;100.00
24962;BME280;12992;50.884;13.668;2023-02-22T08:20:48;97366.16;;;8.49;100.00
24962;BME280;12992;50.884;13.668;2023-02-22T08:23:16;97354.13;;;8.45;100.00
24962;BME280;12992;50.884;13.668;2023-02-22T08:25:42;97364.47;;;8.48;100.00
24962;BME280;12992;50.884;13.668;2023-02-22T08:28:10;97376.22;;;8.65;100.00
24962;BME280;12992;50.884;13.668;2023-02-22T08:30:36;97352.59;;;8.49;100.00
24962;BME280;12992;50.884;13.668;2023-02-22T08:33:03;97354.81;;;8.52;100.00
24962;BME280;12992;50.884;13.668;2023-02-22T08:35:30;97348.75;;;8.62;100.00
24962;BME280;12992;50.884;13.668;2023-02-22T08:38:01;97349.31;;;8.64;100.00
24962;BME280;12992;50.884;13.668;2023-02-22T08:40:30;97360.72;;;8.77;100.00
24962;BME280;12992;50.884;13.668;2023-02-22T08:42:57;97346.47;;;8.70;100.00
24962;BME280;12992;50.884;13.668;2023-02-22T08:45:22;97368.81;;;8.89;100.00
24962;BME280;12992;50.884;13.668;2023-02-22T08:47:48;97370.22;;;9.08;100.00
24962;BME280;12992;50.884;13.668;2023-02-22T08:50:23;97372.22;;;9.13;100.00
24962;BME280;12992;50.884;13.668;2023-02-22T08:52:50;97337.03;;;8.90;100.00
24962;BME280;12992;50.884;13.668;2023-02-22T08:55:19;97368.34;;;9.09;100.00
24962;BME280;12992;50.884;13.668;2023-02-22T08:57:45;97360.28;;;9.14;100.00
24962;BME280;12992;50.884;13.668;2023-02-22T09:00:10;97367.22;;;9.22;100.00
24962;BME280;12992;50.884;13.668;2023-02-22T09:02:36;97372.09;;;9.36;100.00
24962;BME280;12992;50.884;13.668;2023-02-22T09:05:01;97370.50;;;9.41;100.00
24962;BME280;12992;50.884;13.668;2023-02-22T09:07:26;97379.59;;;9.63;100.00
24962;BME280;12992;50.884;13.668;2023-02-22T09:09:52;97362.59;;;9.56;100.00
24962;BME280;12992;50.884;13.668;2023-02-22T09:12:17;97373.69;;;9.71;100.00
24962;BME280;12992;50.884;13.668;2023-02-22T09:14:42;97375.94;;;9.74;100.00
24962;BME280;12992;50.884;13.668;2023-02-22T09:17:08;97366.81;;;9.63;100.00
24962;BME280;12992;50.884;13.668;2023-02-22T09:19:33;97359.38;;;9.59;100.00
24962;BME280;12992;50.884;13.668;2023-02-22T09:21:58;97379.88;;;9.83;100.00
24962;BME280;12992;50.884;13.668;2023-02-22T09:24:24;97366.69;;;9.92;100.00
24962;BME280;12992;50.884;13.668;2023-02-22T09:26:50;97367.06;;;10.01;100.00
24962;BME280;12992;50.884;13.668;2023-02-22T09:29:21;97363.34;;;10.07;100.00
24962;BME280;12992;50.884;13.668;2023-02-22T09:31:51;97361.91;;;10.21;100.00
24962;BME280;12992;50.884;13.668;2023-02-22T09:34:17;97346.16;;;10.23;100.00
24962;BME280;12992;50.884;13.668;2023-02-22T09:36:45;97347.88;;;10.29;100.00
24962;BME280;12992;50.884;13.668;2023-02-22T09:39:11;97327.13;;;10.23;100.00
24962;BME280;12992;50.884;13.668;2023-02-22T09:44:52;97331.75;;;10.44;98.30
24962;BME280;12992;50.884;13.668;2023-02-22T09:47:22;97334.50;;;10.71;95.31
24962;BME280;12992;50.884;13.668;2023-02-22T09:50:12;97307.44;;;10.65;90.22
24962;BME280;12992;50.884;13.668;2023-02-22T09:52:59;97277.06;;;10.51;89.95
24962;BME280;12992;50.884;13.668;2023-02-22T09:55:38;97287.19;;;10.56;91.10
24962;BME280;12992;50.884;13.668;2023-02-22T09:58:15;97298.00;;;10.72;90.00
24962;BME280;12992;50.884;13.668;2023-02-22T10:00:44;97296.19;;;10.83;87.77
24962;BME280;12992;50.884;13.668;2023-02-22T10:03:25;97256.69;;;10.54;87.97
24962;BME280;12992;50.884;13.668;2023-02-22T10:06:02;97279.94;;;10.66;88.37
24962;BME280;12992;50.884;13.668;2023-02-22T10:08:33;97275.22;;;10.57;90.90
24962;BME280;12992;50.884;13.668;2023-02-22T10:11:17;97280.78;;;10.67;92.40
24962;BME280;12992;50.884;13.668;2023-02-22T10:16:39;97258.38;;;10.60;90.08
24962;BME280;12992;50.884;13.668;2023-02-22T10:22:16;97289.34;;;11.07;87.66
24962;BME280;12992;50.884;13.668;2023-02-22T10:24:53;97290.22;;;11.18;87.13
24962;BME280;12992;50.884;13.668;2023-02-22T10:27:33;97288.38;;;11.24;86.09
24962;BME280;12992;50.884;13.668;2023-02-22T10:30:18;97269.50;;;11.17;87.43
24962;BME280;12992;50.884;13.668;2023-02-22T10:32:46;97285.19;;;11.32;85.20
24962;BME280;12992;50.884;13.668;2023-02-22T10:35:19;97265.75;;;11.23;85.39
24962;BME280;12992;50.884;13.668;2023-02-22T10:37:47;97245.47;;;11.09;85.84
24962;BME280;12992;50.884;13.668;2023-02-22T10:40:17;97243.56;;;11.10;86.80
24962;BME280;12992;50.884;13.668;2023-02-22T10:42:47;97234.22;;;11.00;87.01
24962;BME280;12992;50.884;13.668;2023-02-22T10:45:20;97243.88;;;11.13;86.33
24962;BME280;12992;50.884;13.668;2023-02-22T10:47:46;97258.41;;;11.29;87.14
24962;BME280;12992;50.884;13.668;2023-02-22T10:50:14;97252.47;;;11.32;86.06
24962;BME280;12992;50.884;13.668;2023-02-22T10:52:40;97248.44;;;11.40;84.96
24962;BME280;12992;50.884;13.668;2023-02-22T10:55:10;97235.28;;;11.31;84.80
24962;BME280;12992;50.884;13.668;2023-02-22T10:57:37;97226.50;;;11.24;85.73
24962;BME280;12992;50.884;13.668;2023-02-22T11:02:55;97216.28;;;11.04;86.69
24962;BME280;12992;50.884;13.668;2023-02-22T11:05:33;97236.59;;;11.29;86.37
24962;BME280;12992;50.884;13.668;2023-02-22T11:08:22;97238.84;;;11.37;85.85
24962;BME280;12992;50.884;13.668;2023-02-22T11:10:52;97225.97;;;11.27;85.53
24962;BME280;12992;50.884;13.668;2023-02-22T11:13:28;97211.47;;;11.22;86.10
24962;BME280;12992;50.884;13.668;2023-02-22T11:15:57;97187.69;;;11.07;84.82
24962;BME280;12992;50.884;13.668;2023-02-22T11:18:31;97186.00;;;11.01;86.17
24962;BME280;12992;50.884;13.668;2023-02-22T11:21:07;97195.63;;;11.14;86.48
24962;BME280;12992;50.884;13.668;2023-02-22T11:23:37;97200.34;;;11.28;86.11
24962;BME280;12992;50.884;13.668;2023-02-22T11:26:10;97208.59;;;11.39;85.81
24962;BME280;12992;50.884;13.668;2023-02-22T11:28:42;97223.09;;;11.44;87.27
24962;BME280;12992;50.884;13.668;2023-02-22T11:31:19;97241.56;;;11.79;85.41
24962;BME280;12992;50.884;13.668;2023-02-22T11:33:56;97207.63;;;11.60;85.98
24962;BME280;12992;50.884;13.668;2023-02-22T11:36:41;97229.94;;;11.99;83.27
24962;BME280;12992;50.884;13.668;2023-02-22T11:39:29;97225.59;;;12.03;83.05
24962;BME280;12992;50.884;13.668;2023-02-22T11:41:56;97211.13;;;12.03;84.23
24962;BME280;12992;50.884;13.668;2023-02-22T11:44:27;97188.97;;;11.84;83.59
24962;BME280;12992;50.884;13.668;2023-02-22T11:46:55;97187.03;;;11.89;82.96
24962;BME280;12992;50.884;13.668;2023-02-22T11:49:31;97141.88;;;11.51;84.21
24962;BME280;12992;50.884;13.668;2023-02-22T11:52:27;97167.03;;;11.69;85.52
24962;BME280;12992;50.884;13.668;2023-02-22T11:55:22;97161.28;;;11.65;84.56
24962;BME280;12992;50.884;13.668;2023-02-22T11:58:29;97151.72;;;11.62;84.23
24962;BME280;12992;50.884;13.668;2023-02-22T12:01:07;97160.72;;;11.63;84.72
24962;BME280;12992;50.884;13.668;2023-02-22T12:09:02;97116.44;;;11.35;84.19
24962;BME280;12992;50.884;13.668;2023-02-22T12:11:41;97128.97;;;11.31;85.48
24962;BME280;12992;50.884;13.668;2023-02-22T12:14:14;97150.03;;;11.51;85.35
24962;BME280;12992;50.884;13.668;2023-02-22T12:19:29;97172.03;;;11.87;85.99
24962;BME280;12992;50.884;13.668;2023-02-22T12:21:59;97173.44;;;12.00;85.35
24962;BME280;12992;50.884;13.668;2023-02-22T12:24:39;97172.13;;;12.12;83.30
24962;BME280;12992;50.884;13.668;2023-02-22T12:27:17;97147.50;;;11.97;83.19
24962;BME280;12992;50.884;13.668;2023-02-22T12:29:51;97124.50;;;11.78;83.83
24962;BME280;12992;50.884;13.668;2023-02-22T12:32:35;97126.97;;;11.79;84.25
24962;BME280;12992;50.884;13.668;2023-02-22T12:35:15;97096.28;;;11.47;83.85
24962;BME280;12992;50.884;13.668;2023-02-22T12:37:59;97148.56;;;11.86;84.50
24962;BME280;12992;50.884;13.668;2023-02-22T12:40:38;97125.66;;;11.87;82.72
24962;BME280;12992;50.884;13.668;2023-02-22T12:43:38;97108.63;;;11.64;84.71
24962;BME280;12992;50.884;13.668;2023-02-22T12:46:20;97136.56;;;11.92;83.43
24962;BME280;12992;50.884;13.668;2023-02-22T12:54:15;97141.00;;;12.13;81.81
24962;BME280;12992;50.884;13.668;2023-02-22T12:56:48;97128.44;;;12.12;81.31
24962;BME280;12992;50.884;13.668;2023-02-22T12:59:36;97127.34;;;12.13;82.30
24962;BME280;12992;50.884;13.668;2023-02-22T13:02:21;97108.75;;;12.00;83.27
24962;BME280;12992;50.884;13.668;2023-02-22T13:04:50;97118.06;;;12.04;82.95
24962;BME280;12992;50.884;13.668;2023-02-22T13:13:23;97103.75;;;11.72;85.11
24962;BME280;12992;50.884;13.668;2023-02-22T13:15:54;97096.69;;;11.81;84.21
24962;BME280;12992;50.884;13.668;2023-02-22T13:18:31;97083.00;;;11.71;84.38
24962;BME280;12992;50.884;13.668;2023-02-22T13:21:07;97108.19;;;11.88;84.12
24962;BME280;12992;50.884;13.668;2023-02-22T13:26:29;97109.84;;;11.99;82.56
24962;BME280;12992;50.884;13.668;2023-02-22T13:32:15;97074.81;;;11.71;85.14
24962;BME280;12992;50.884;13.668;2023-02-22T13:38:13;97055.66;;;11.40;86.35
24962;BME280;12992;50.884;13.668;2023-02-22T13:51:44;97061.28;;;11.13;90.50
24962;BME280;12992;50.884;13.668;2023-02-22T13:56:49;97089.72;;;11.32;92.43
24962;BME280;12992;50.884;13.668;2023-02-22T13:59:35;97093.81;;;11.40;91.76
24962;BME280;12992;50.884;13.668;2023-02-22T14:02:03;97082.31;;;11.28;90.93
24962;BME280;12992;50.884;13.668;2023-02-22T14:20:39;97052.50;;;11.06;92.58
24962;BME280;12992;50.884;13.668;2023-02-22T14:25:48;97059.88;;;11.11;93.63
24962;BME280;12992;50.884;13.668;2023-02-22T14:28:40;97041.88;;;11.04;92.46
24962;BME280;12992;50.884;13.668;2023-02-22T14:31:09;97068.13;;;11.26;92.30
24962;BME280;12992;50.884;13.668;2023-02-22T14:34:13;97069.53;;;11.39;90.96